Time;durP1;ratioP1;P1;durP2;ratioP2;P2;SDS_P1;SDS_P2;PMS_P1;PMS_P2;Temp;Humidity;BMP_temperature;BMP_pressure;BME280_temperature;BME280_humidity;BME280_pressure;Samples;Min_cycle;Max_cycle;Signal;HPM_P1;HPM_P2
2022/04/29 00:00:04;;;;;;;;;;;;;;;;;;4864430;29;20070;-96
2022/04/29 00:02:31;;;;;;;36.33;25.33;;;;;;;;;;4862805;29;19919;-96
2022/04/29 00:04:59;;;;;;;35.05;24.02;;;;;;;;;;4882617;29;20094;-96
2022/04/29 00:10:32;;;;;;;28.42;21.73;;;;;;;;;;4951999;23;20124;-96
2022/04/29 00:12:59;;;;;;;28.25;21.85;;;;;;;;;;4922215;29;20017;-96
2022/04/29 00:15:26;;;;;;;28.30;22.42;;;;;;;;;;4922472;29;20036;-95
2022/04/29 00:17:58;;;;;;;28.17;22.58;;;;;;;;;;4919323;29;20036;-96
2022/04/29 00:20:26;;;;;;;30.17;21.88;;;;;;;;;;4921553;29;20021;-96
2022/04/29 00:23:12;;;;;;;28.92;23.35;;;;;;;;;;4904280;29;20040;-96
2022/04/29 00:25:59;;;;;;;28.48;20.90;;;;;;;;;;4919397;29;20029;-96
2022/04/29 00:28:27;;;;;;;30.48;22.25;;;;;;;;;;4908993;29;20009;-95
2022/04/29 00:30:55;;;;;;;27.30;21.35;;;;;;;;;;4901899;29;20025;-96
2022/04/29 00:33:22;;;;;;;29.98;21.85;;;;;;;;;;4935692;29;20036;-95
2022/04/29 00:35:53;;;;;;;27.70;20.52;;;;;;;;;;4923092;29;20056;-96
2022/04/29 00:38:23;;;;;;;27.33;20.92;;;;;;;;;;4937863;29;20032;-95
2022/04/29 00:40:50;;;;;;;25.48;20.15;;;;;;;;;;4935167;29;20032;-96
2022/04/29 00:43:16;;;;;;;25.17;19.65;;;;;;;;;;4917893;29;20076;-95
2022/04/29 00:45:42;;;;;;;25.90;19.75;;;;;;;;;;4934171;29;20422;-95
2022/04/29 00:48:08;;;;;;;28.13;19.63;;;;;;;;;;4936286;29;20031;-95
2022/04/29 00:50:35;;;;;;;25.48;19.30;;;;;;;;;;4934771;29;20035;-95
2022/04/29 00:53:21;;;;;;;25.13;19.20;;;;;;;;;;4922393;29;20076;-96
2022/04/29 00:55:48;;;;;;;29.67;19.70;;;;;;;;;;4938591;29;20130;-95
2022/04/29 00:58:22;;;;;;;25.88;19.55;;;;;;;;;;4922662;29;20064;-96
2022/04/29 01:00:49;;;;;;;29.75;19.73;;;;;;;;;;4925504;29;20032;-96
2022/04/29 01:03:18;;;;;;;31.80;18.70;;;;;;;;;;4940283;29;20034;-96
2022/04/29 01:05:47;;;;;;;30.00;19.77;;;;;;;;;;4923308;29;20036;-95
2022/04/29 02:06:38;;;;;;;24.75;16.40;;;;;;;;;;5715131;23;20082;-95
2022/04/29 03:06:09;;;;;;;20.98;17.38;;;;;;;;;;4916190;29;20042;-93
2022/04/29 03:14:13;;;;;;;21.90;17.02;;;;;;;;;;5893990;23;20022;-96
2022/04/29 04:31:57;;;;;;;24.65;18.15;;;;;;;;;;5989468;23;20057;-93
2022/04/29 05:29:23;;;;;;;17.67;12.75;;;;;;;;;;5996570;23;20101;-95
2022/04/29 05:31:49;;;;;;;17.13;13.32;;;;;;;;;;4923177;29;20040;-94
2022/04/29 05:34:16;;;;;;;15.93;13.13;;;;;;;;;;4924291;29;20068;-95
2022/04/29 05:36:42;;;;;;;15.93;12.60;;;;;;;;;;4924527;29;20497;-93
2022/04/29 05:54:43;;;;;;;16.65;12.25;;;;;;;;;;5023949;23;20063;-96
2022/04/29 05:57:09;;;;;;;16.15;11.55;;;;;;;;;;5422529;23;20079;-88
2022/04/29 05:59:35;;;;;;;15.73;11.95;;;;;;;;;;4949291;29;20027;-88
2022/04/29 06:02:01;;;;;;;16.70;11.63;;;;;;;;;;4952728;29;20033;-88
2022/04/29 06:04:27;;;;;;;17.73;11.82;;;;;;;;;;4940009;29;20038;-88
2022/04/29 06:06:53;;;;;;;14.07;10.05;;;;;;;;;;4940685;29;20024;-89
2022/04/29 06:09:19;;;;;;;15.85;11.55;;;;;;;;;;4940277;29;20039;-87
2022/04/29 06:11:46;;;;;;;14.15;10.32;;;;;;;;;;4940652;29;20032;-88
2022/04/29 06:14:12;;;;;;;13.82;10.75;;;;;;;;;;4939837;29;20078;-89
2022/04/29 06:16:38;;;;;;;13.85;10.45;;;;;;;;;;4940410;29;20024;-89
2022/04/29 06:19:04;;;;;;;14.35;10.30;;;;;;;;;;4940780;29;20054;-88
2022/04/29 06:21:30;;;;;;;15.40;10.88;;;;;;;;;;4940613;29;20030;-88
2022/04/29 06:23:58;;;;;;;11.40;9.10;;;;;;;;;;4939470;29;20063;-88
2022/04/29 06:26:24;;;;;;;13.73;10.23;;;;;;;;;;4938834;29;20432;-88
2022/04/29 06:28:50;;;;;;;11.70;9.80;;;;;;;;;;4940667;29;20032;-89
2022/04/29 06:31:16;;;;;;;12.18;9.88;;;;;;;;;;4940449;29;20032;-89
2022/04/29 06:33:42;;;;;;;12.35;10.15;;;;;;;;;;4940234;29;20039;-89
2022/04/29 06:36:09;;;;;;;13.63;9.32;;;;;;;;;;4940505;29;20059;-88
2022/04/29 06:38:35;;;;;;;13.02;9.85;;;;;;;;;;4953555;28;20023;-89
2022/04/29 06:41:01;;;;;;;13.57;10.15;;;;;;;;;;4978981;28;20039;-88
2022/04/29 06:43:29;;;;;;;14.23;11.23;;;;;;;;;;4978822;28;20030;-89
2022/04/29 06:45:55;;;;;;;12.52;10.23;;;;;;;;;;4978868;28;20122;-88
2022/04/29 06:48:22;;;;;;;14.48;10.57;;;;;;;;;;4978639;28;20019;-88
2022/04/29 06:50:48;;;;;;;12.48;10.05;;;;;;;;;;4978906;28;20405;-88
2022/04/29 06:53:14;;;;;;;14.18;10.15;;;;;;;;;;4977750;28;20035;-88
2022/04/29 06:55:40;;;;;;;13.65;10.70;;;;;;;;;;4977620;28;20034;-88
2022/04/29 06:58:07;;;;;;;14.93;10.13;;;;;;;;;;4978297;28;20038;-89
2022/04/29 07:14:01;;;;;;;12.93;10.05;;;;;;;;;;5115635;27;20692;-90
2022/04/29 07:16:27;;;;;;;12.55;10.70;;;;;;;;;;5114628;28;20030;-89
2022/04/29 07:18:53;;;;;;;14.27;10.65;;;;;;;;;;5114195;28;20464;-89
2022/04/29 07:21:19;;;;;;;17.13;12.50;;;;;;;;;;5115245;28;20031;-88
2022/04/29 07:23:47;;;;;;;14.77;10.82;;;;;;;;;;5115276;28;20023;-89
2022/04/29 07:26:13;;;;;;;16.27;11.00;;;;;;;;;;5115392;28;20038;-87
2022/04/29 07:28:39;;;;;;;15.15;10.60;;;;;;;;;;5114200;28;20023;-87
2022/04/29 07:31:06;;;;;;;14.38;10.18;;;;;;;;;;5115352;28;20031;-88
2022/04/29 07:33:32;;;;;;;14.30;9.95;;;;;;;;;;5114640;28;20024;-88
2022/04/29 07:41:45;;;;;;;17.80;11.05;;;;;;;;;;5114295;28;20131;-86
2022/04/29 07:44:12;;;;;;;13.95;10.18;;;;;;;;;;5114012;28;20020;-87
2022/04/29 07:46:38;;;;;;;14.85;10.77;;;;;;;;;;5100247;28;20441;-87
2022/04/29 07:49:05;;;;;;;14.05;10.60;;;;;;;;;;5094184;28;20089;-88
2022/04/29 07:51:31;;;;;;;14.95;10.30;;;;;;;;;;5094181;28;20024;-87
2022/04/29 07:53:57;;;;;;;12.65;9.55;;;;;;;;;;5094243;28;20051;-88
2022/04/29 07:56:23;;;;;;;12.93;10.38;;;;;;;;;;5093413;28;20020;-87
2022/04/29 07:58:49;;;;;;;14.13;10.40;;;;;;;;;;5094285;28;20028;-87
2022/04/29 08:01:16;;;;;;;14.40;11.05;;;;;;;;;;5094205;28;20031;-88
2022/04/29 08:03:42;;;;;;;13.57;10.27;;;;;;;;;;5094021;28;20024;-87
2022/04/29 08:06:09;;;;;;;13.57;11.05;;;;;;;;;;5094339;28;20339;-87
2022/04/29 08:08:37;;;;;;;13.73;10.57;;;;;;;;;;5093211;28;20040;-87
2022/04/29 08:11:04;;;;;;;13.50;10.48;;;;;;;;;;5093917;28;20021;-87
2022/04/29 08:13:30;;;;;;;14.13;10.35;;;;;;;;;;5087362;28;20049;-87
2022/04/29 08:15:58;;;;;;;12.30;10.38;;;;;;;;;;5080527;28;20039;-88
2022/04/29 08:18:25;;;;;;;12.38;10.95;;;;;;;;;;5079542;28;20034;-87
2022/04/29 08:20:52;;;;;;;15.77;11.68;;;;;;;;;;5080091;28;20029;-88
2022/04/29 08:23:18;;;;;;;12.95;11.15;;;;;;;;;;5080154;28;20459;-87
2022/04/29 08:25:44;;;;;;;16.92;11.43;;;;;;;;;;5079577;28;20418;-88
2022/04/29 08:28:10;;;;;;;13.82;11.45;;;;;;;;;;5079537;28;20032;-88
2022/04/29 08:30:36;;;;;;;14.68;11.98;;;;;;;;;;5080190;28;20066;-87
2022/04/29 08:33:02;;;;;;;13.57;12.05;;;;;;;;;;5080019;28;20028;-88
2022/04/29 08:35:29;;;;;;;13.48;11.75;;;;;;;;;;5079092;28;20031;-88
2022/04/29 08:37:57;;;;;;;14.15;10.90;;;;;;;;;;5079105;28;20051;-87
2022/04/29 08:40:23;;;;;;;13.93;11.52;;;;;;;;;;5079623;28;20074;-88
2022/04/29 08:42:50;;;;;;;13.95;10.73;;;;;;;;;;5079886;28;20333;-88
2022/04/29 08:45:17;;;;;;;11.55;9.40;;;;;;;;;;5079938;28;20027;-88
2022/04/29 08:47:44;;;;;;;13.90;10.85;;;;;;;;;;5079822;28;20100;-88
2022/04/29 08:50:18;;;;;;;11.95;9.15;;;;;;;;;;5078846;28;20352;-87
2022/04/29 08:52:45;;;;;;;12.52;9.77;;;;;;;;;;5079014;28;20024;-88
2022/04/29 09:13:41;;;;;;;17.95;11.60;;;;;;;;;;5136005;27;20352;-92
2022/04/29 09:21:19;;;;;;;12.10;8.60;;;;;;;;;;5533069;22;20077;-91
2022/04/29 09:23:47;;;;;;;11.38;8.15;;;;;;;;;;5030727;28;20071;-89
2022/04/29 09:26:25;;;;;;;13.20;8.80;;;;;;;;;;5014779;28;20332;-89
2022/04/29 09:28:52;;;;;;;8.20;6.95;;;;;;;;;;5014602;28;20102;-89
2022/04/29 09:31:19;;;;;;;8.50;7.03;;;;;;;;;;5030216;28;20037;-89
2022/04/29 09:33:58;;;;;;;10.77;7.22;;;;;;;;;;5014581;28;20026;-90
2022/04/29 09:36:25;;;;;;;10.88;6.85;;;;;;;;;;5030468;28;20030;-88
2022/04/29 09:41:55;;;;;;;9.85;6.68;;;;;;;;;;5014686;28;20068;-89
2022/04/29 09:44:31;;;;;;;9.55;7.70;;;;;;;;;;5014795;28;20018;-89
2022/04/29 09:47:11;;;;;;;6.82;5.50;;;;;;;;;;5030134;28;20026;-89
2022/04/29 09:49:37;;;;;;;7.18;4.95;;;;;;;;;;5029076;28;20335;-90
2022/04/29 09:52:03;;;;;;;8.50;5.72;;;;;;;;;;5014501;28;20116;-89
2022/04/29 09:54:30;;;;;;;7.70;6.10;;;;;;;;;;5014857;28;20026;-95
2022/04/29 09:57:03;;;;;;;9.77;6.95;;;;;;;;;;5015358;28;20324;-89
2022/04/29 09:59:36;;;;;;;11.45;6.72;;;;;;;;;;5014354;28;20026;-88
2022/04/29 10:02:03;;;;;;;6.95;5.28;;;;;;;;;;5028830;28;20030;-87
2022/04/29 10:04:31;;;;;;;6.97;5.13;;;;;;;;;;5014052;28;20022;-87
2022/04/29 10:06:57;;;;;;;8.38;5.30;;;;;;;;;;5014492;28;20102;-88
2022/04/29 10:09:26;;;;;;;7.20;5.93;;;;;;;;;;5029114;28;20057;-87
2022/04/29 10:11:53;;;;;;;5.97;4.90;;;;;;;;;;5019767;28;20032;-88
2022/04/29 10:14:21;;;;;;;4.50;3.92;;;;;;;;;;5004869;28;20032;-88
2022/04/29 10:21:15;;;;;;;5.80;4.20;;;;;;;;;;5020361;28;20114;-88
2022/04/29 10:22:23;;;;;;;8.55;4.72;;;;;;;;;;5020218;28;20094;-88
2022/04/29 10:24:50;;;;;;;6.97;4.40;;;;;;;;;;5020539;28;20022;-87
2022/04/29 10:27:16;;;;;;;5.88;4.80;;;;;;;;;;5020445;28;20105;-87
2022/04/29 10:29:42;;;;;;;6.72;5.13;;;;;;;;;;5020403;28;20037;-87
2022/04/29 10:32:09;;;;;;;7.85;5.05;;;;;;;;;;5020296;28;20113;-87
2022/04/29 10:34:35;;;;;;;5.13;4.05;;;;;;;;;;5020635;28;20410;-87
2022/04/29 10:37:02;;;;;;;5.10;3.83;;;;;;;;;;5019203;28;20077;-87
2022/04/29 10:39:28;;;;;;;6.30;4.30;;;;;;;;;;5020166;28;20068;-87
2022/04/29 10:42:06;;;;;;;4.72;3.25;;;;;;;;;;5019831;28;20404;-87
2022/04/29 10:44:32;;;;;;;3.85;3.00;;;;;;;;;;5019972;28;20025;-85
2022/04/29 10:47:18;;;;;;;5.85;3.30;;;;;;;;;;5019176;28;20033;-85
2022/04/29 10:49:44;;;;;;;7.40;3.75;;;;;;;;;;5019759;28;20400;-86
2022/04/29 10:52:24;;;;;;;7.53;2.92;;;;;;;;;;5019769;28;20117;-86
2022/04/29 10:54:56;;;;;;;4.38;3.22;;;;;;;;;;5019830;28;20034;-86
2022/04/29 10:57:35;;;;;;;6.63;3.25;;;;;;;;;;5019933;28;20022;-86
2022/04/29 11:00:07;;;;;;;3.22;2.83;;;;;;;;;;5019818;28;20030;-86
2022/04/29 11:02:34;;;;;;;3.30;2.67;;;;;;;;;;5019654;28;20026;-85
2022/04/29 11:05:01;;;;;;;6.45;3.10;;;;;;;;;;5019658;28;20105;-86
2022/04/29 11:07:36;;;;;;;6.47;3.47;;;;;;;;;;5019703;28;20018;-86
2022/04/29 11:10:02;;;;;;;4.38;3.38;;;;;;;;;;5019605;28;20049;-86
2022/04/29 11:12:36;;;;;;;4.80;2.83;;;;;;;;;;5019348;28;20403;-87
2022/04/29 11:15:05;;;;;;;3.10;2.25;;;;;;;;;;5019529;28;20037;-85
2022/04/29 11:17:51;;;;;;;4.10;2.63;;;;;;;;;;5022080;28;20036;-84
2022/04/29 11:20:17;;;;;;;4.78;2.67;;;;;;;;;;5035577;28;20060;-84
2022/04/29 11:25:48;;;;;;;3.22;2.80;;;;;;;;;;5032775;28;20036;-84
2022/04/29 11:28:15;;;;;;;5.60;2.58;;;;;;;;;;5023629;28;20415;-84
2022/04/29 11:30:41;;;;;;;3.25;2.65;;;;;;;;;;5029529;28;20120;-84
2022/04/29 11:33:07;;;;;;;4.25;2.70;;;;;;;;;;5021621;28;20026;-84
2022/04/29 11:35:33;;;;;;;3.47;2.40;;;;;;;;;;5011466;28;20026;-84
2022/04/29 11:37:59;;;;;;;2.72;2.22;;;;;;;;;;5010886;28;20034;-84
2022/04/29 11:40:27;;;;;;;3.08;2.67;;;;;;;;;;5018844;28;20029;-85
2022/04/29 11:42:54;;;;;;;3.63;2.13;;;;;;;;;;5024732;28;20034;-94
2022/04/29 11:45:21;;;;;;;2.63;2.38;;;;;;;;;;5019185;28;20041;-94
2022/04/29 11:47:47;;;;;;;3.10;2.28;;;;;;;;;;5018918;28;20345;-94
2022/04/29 11:50:13;;;;;;;3.80;2.17;;;;;;;;;;5018863;28;20033;-94
2022/04/29 11:52:39;;;;;;;2.75;2.17;;;;;;;;;;5018932;28;20033;-94
2022/04/29 11:55:06;;;;;;;2.40;2.20;;;;;;;;;;5018752;28;20117;-93
2022/04/29 11:57:33;;;;;;;3.70;2.20;;;;;;;;;;5018709;28;20028;-93
2022/04/29 12:00:00;;;;;;;2.30;2.08;;;;;;;;;;5018675;28;20116;-92
2022/04/29 12:02:27;;;;;;;2.58;2.08;;;;;;;;;;5018571;28;20087;-94
2022/04/29 12:04:57;;;;;;;2.67;2.30;;;;;;;;;;5018653;28;20029;-93
2022/04/29 12:07:24;;;;;;;3.08;2.20;;;;;;;;;;5018592;28;20466;-93
2022/04/29 12:09:50;;;;;;;2.42;2.08;;;;;;;;;;5001264;28;20037;-94
2022/04/29 12:12:42;;;;;;;2.88;2.13;;;;;;;;;;5018289;28;20051;-94
2022/04/29 12:15:08;;;;;;;;;;;;;;;;;;5014454;28;20046;-94
2022/04/29 12:17:38;;;;;;;2.63;1.50;;;;;;;;;;5001026;28;19912;-94
2022/04/29 12:20:07;;;;;;;2.72;1.63;;;;;;;;;;5018105;28;20050;-93
2022/04/29 12:22:36;;;;;;;2.80;2.30;;;;;;;;;;5000909;28;20030;-95
2022/04/29 12:25:21;;;;;;;6.80;2.42;;;;;;;;;;5018203;28;20025;-94
2022/04/29 12:28:05;;;;;;;6.90;2.05;;;;;;;;;;5000820;28;20026;-94
2022/04/29 12:36:13;;;;;;;2.83;2.58;;;;;;;;;;5018160;28;20072;-93
2022/04/29 12:38:40;;;;;;;14.68;2.53;;;;;;;;;;5018190;28;20046;-94
2022/04/29 12:41:25;;;;;;;2.53;2.33;;;;;;;;;;5018695;28;20026;-94
2022/04/29 12:43:52;;;;;;;4.28;2.28;;;;;;;;;;5018031;28;20110;-95
2022/04/29 12:46:19;;;;;;;4.30;2.80;;;;;;;;;;5018056;28;20046;-95
2022/04/29 12:48:47;;;;;;;2.35;2.15;;;;;;;;;;5018234;28;20105;-94
2022/04/29 12:51:28;;;;;;;3.17;1.95;;;;;;;;;;5018105;28;20498;-95
2022/04/29 12:53:54;;;;;;;2.33;1.80;;;;;;;;;;5000865;28;20026;-96
2022/04/29 12:56:27;;;;;;;2.60;2.00;;;;;;;;;;5017909;28;20033;-95
2022/04/29 12:58:54;;;;;;;4.10;2.42;;;;;;;;;;5018332;28;20042;-94
2022/04/29 13:01:20;;;;;;;5.40;2.50;;;;;;;;;;5000167;28;20351;-94
2022/04/29 13:03:54;;;;;;;5.28;3.95;;;;;;;;;;5017526;28;20038;-92
2022/04/29 13:06:20;;;;;;;36.95;30.45;;;;;;;;;;5000738;28;20030;-96
2022/04/29 13:08:48;;;;;;;16.27;11.25;;;;;;;;;;5018025;28;20022;-92
2022/04/29 13:11:16;;;;;;;23.98;17.80;;;;;;;;;;5018024;28;20025;-92
2022/04/29 13:13:42;;;;;;;3.00;2.40;;;;;;;;;;5000506;28;20026;-90
2022/04/29 13:16:08;;;;;;;3.42;2.67;;;;;;;;;;5019239;28;20067;-95
2022/04/29 13:18:34;;;;;;;4.93;2.88;;;;;;;;;;5017667;28;20030;-94
2022/04/29 13:21:05;;;;;;;9.70;6.47;;;;;;;;;;5017746;28;20053;-93
2022/04/29 13:23:31;;;;;;;3.95;3.30;;;;;;;;;;5020308;28;20319;-93
2022/04/29 13:25:57;;;;;;;29.73;20.08;;;;;;;;;;5019567;28;20026;-85
2022/04/29 13:28:23;;;;;;;5.05;3.33;;;;;;;;;;5017204;28;20105;-86
2022/04/29 13:30:50;;;;;;;4.43;2.33;;;;;;;;;;5017707;28;20100;-87
2022/04/29 13:33:16;;;;;;;3.40;2.10;;;;;;;;;;5017485;28;20022;-86
2022/04/29 13:35:42;;;;;;;2.75;2.42;;;;;;;;;;5017367;28;20309;-86
2022/04/29 13:38:10;;;;;;;28.85;21.98;;;;;;;;;;5017357;28;20097;-86
2022/04/29 13:40:36;;;;;;;6.10;4.95;;;;;;;;;;5017307;28;20057;-86
2022/04/29 13:43:04;;;;;;;6.18;3.15;;;;;;;;;;4999703;28;20045;-86
2022/04/29 13:45:30;;;;;;;7.32;5.47;;;;;;;;;;4999824;28;20030;-86
2022/04/29 13:47:56;;;;;;;4.00;2.08;;;;;;;;;;5017726;28;20091;-85
2022/04/29 13:50:22;;;;;;;3.22;1.70;;;;;;;;;;5021043;28;20037;-86
2022/04/29 13:55:33;;;;;;;4.07;1.67;;;;;;;;;;5021264;28;20351;-86
2022/04/29 13:58:00;;;;;;;2.00;1.70;;;;;;;;;;5021145;28;20025;-86
2022/04/29 14:00:26;;;;;;;8.27;2.08;;;;;;;;;;5003581;28;20041;-85
2022/04/29 14:02:52;;;;;;;5.57;2.50;;;;;;;;;;5020599;28;20421;-86
2022/04/29 14:05:18;;;;;;;16.23;11.98;;;;;;;;;;5020673;28;20026;-86
2022/04/29 14:07:44;;;;;;;7.80;5.82;;;;;;;;;;5003410;28;20018;-85
2022/04/29 14:10:11;;;;;;;12.35;9.10;;;;;;;;;;5020270;28;20022;-85
2022/04/29 14:12:38;;;;;;;14.55;7.68;;;;;;;;;;5020127;28;20029;-86
2022/04/29 14:15:04;;;;;;;5.28;2.60;;;;;;;;;;5020361;28;20028;-89
2022/04/29 14:17:31;;;;;;;5.82;2.63;;;;;;;;;;5020264;28;20033;-93
2022/04/29 14:19:57;;;;;;;2.72;2.50;;;;;;;;;;5020762;28;20029;-92
2022/04/29 14:22:23;;;;;;;4.75;2.55;;;;;;;;;;5003183;28;20080;-92
2022/04/29 14:24:49;;;;;;;4.22;2.20;;;;;;;;;;5020403;28;20540;-94
2022/04/29 14:27:16;;;;;;;5.57;2.55;;;;;;;;;;5003223;28;20026;-94
2022/04/29 14:29:42;;;;;;;4.88;2.60;;;;;;;;;;5020439;28;20404;-91
2022/04/29 14:32:13;;;;;;;6.85;4.18;;;;;;;;;;5002462;28;20046;-90
2022/04/29 14:34:40;;;;;;;27.27;19.75;;;;;;;;;;5020384;28;20148;-91
2022/04/29 14:37:06;;;;;;;4.60;3.22;;;;;;;;;;5020270;28;20034;-92
2022/04/29 14:39:32;;;;;;;6.75;1.80;;;;;;;;;;5020381;28;20026;-94
2022/04/29 14:41:58;;;;;;;2.25;1.67;;;;;;;;;;5020474;28;20026;-91
2022/04/29 14:44:25;;;;;;;3.45;1.98;;;;;;;;;;5020074;28;20034;-92
2022/04/29 14:46:52;;;;;;;2.33;1.90;;;;;;;;;;5002203;28;20057;-92
2022/04/29 14:49:19;;;;;;;3.22;1.90;;;;;;;;;;5002891;28;20021;-91
2022/04/29 14:51:45;;;;;;;3.42;1.75;;;;;;;;;;5002802;28;20084;-91
2022/04/29 14:54:12;;;;;;;3.53;2.40;;;;;;;;;;5019770;28;20021;-93
2022/04/29 14:56:41;;;;;;;2.78;2.10;;;;;;;;;;5020109;28;20026;-93
2022/04/29 14:59:07;;;;;;;3.60;2.13;;;;;;;;;;5019932;28;20026;-93
2022/04/29 15:15:50;;;;;;;5.20;2.58;;;;;;;;;;5115320;28;20042;-93
2022/04/29 15:18:19;;;;;;;2.20;2.00;;;;;;;;;;5115179;28;20441;-95
2022/04/29 15:20:46;;;;;;;5.75;2.50;;;;;;;;;;5114508;28;20069;-94
2022/04/29 15:23:12;;;;;;;7.68;2.50;;;;;;;;;;5114598;28;20034;-94
2022/04/29 15:25:39;;;;;;;3.95;2.53;;;;;;;;;;5114401;28;20023;-92
2022/04/29 15:28:06;;;;;;;7.10;2.97;;;;;;;;;;5114275;28;20026;-93
2022/04/29 15:30:36;;;;;;;5.43;3.10;;;;;;;;;;5114977;28;20032;-92
2022/04/29 15:33:04;;;;;;;12.95;5.75;;;;;;;;;;5114953;28;20028;-92
2022/04/29 15:35:30;;;;;;;24.35;9.82;;;;;;;;;;5114992;28;20031;-93
2022/04/29 15:37:56;;;;;;;11.55;6.22;;;;;;;;;;5114189;28;20028;-93
2022/04/29 15:40:22;;;;;;;9.32;4.53;;;;;;;;;;5114046;28;20050;-93
2022/04/29 15:42:48;;;;;;;7.10;4.00;;;;;;;;;;5113879;28;20065;-92
2022/04/29 15:45:14;;;;;;;16.73;8.05;;;;;;;;;;5113641;28;20020;-93
2022/04/29 15:47:41;;;;;;;25.67;9.40;;;;;;;;;;5114737;28;20531;-92
2022/04/29 15:50:07;;;;;;;25.98;11.23;;;;;;;;;;5114721;28;20039;-94
2022/04/29 15:52:33;;;;;;;19.55;7.15;;;;;;;;;;5114571;28;20024;-92
2022/04/29 15:55:00;;;;;;;11.43;5.00;;;;;;;;;;5113801;28;20027;-94
2022/04/29 15:57:26;;;;;;;19.58;6.65;;;;;;;;;;5114551;28;20055;-94
2022/04/29 15:59:52;;;;;;;18.40;6.95;;;;;;;;;;5114872;28;20024;-94
2022/04/29 16:02:18;;;;;;;7.72;3.75;;;;;;;;;;5113450;28;20061;-94
2022/04/29 16:04:44;;;;;;;7.07;3.20;;;;;;;;;;5114533;28;20030;-93
2022/04/29 16:07:10;;;;;;;5.18;2.70;;;;;;;;;;5114194;28;20020;-93
2022/04/29 16:09:36;;;;;;;4.40;2.47;;;;;;;;;;5114117;28;20120;-92
2022/04/29 16:12:02;;;;;;;3.65;2.50;;;;;;;;;;5111217;28;20083;-93
2022/04/29 16:14:28;;;;;;;5.20;3.17;;;;;;;;;;5099724;28;20032;-94
2022/04/29 16:16:54;;;;;;;5.65;3.90;;;;;;;;;;5100627;28;20028;-92
2022/04/29 16:22:08;;;;;;;6.68;2.92;;;;;;;;;;5100576;28;20088;-93
2022/04/29 16:27:19;;;;;;;3.80;2.30;;;;;;;;;;5100904;28;20079;-94
2022/04/29 16:29:45;;;;;;;8.38;2.60;;;;;;;;;;5100908;28;20020;-94
2022/04/29 16:32:11;;;;;;;4.63;2.70;;;;;;;;;;5100481;28;20043;-94
2022/04/29 16:34:37;;;;;;;4.25;2.40;;;;;;;;;;5099626;28;20036;-96
2022/04/29 16:37:04;;;;;;;5.22;2.97;;;;;;;;;;5100573;28;20032;-95
2022/04/29 16:39:30;;;;;;;4.20;2.60;;;;;;;;;;5100192;28;20027;-95
2022/04/29 16:41:57;;;;;;;3.05;2.30;;;;;;;;;;5100267;28;20073;-94
2022/04/29 16:44:28;;;;;;;4.57;2.60;;;;;;;;;;5100237;28;20103;-94
2022/04/29 16:46:55;;;;;;;4.63;2.67;;;;;;;;;;5099107;28;20016;-95
2022/04/29 16:49:22;;;;;;;7.72;3.40;;;;;;;;;;5100416;28;20324;-94
2022/04/29 16:51:48;;;;;;;7.10;4.65;;;;;;;;;;5099842;28;20035;-93
2022/04/29 16:54:14;;;;;;;10.07;5.03;;;;;;;;;;5099771;28;20097;-94
2022/04/29 16:59:26;;;;;;;6.22;3.03;;;;;;;;;;5078205;28;20193;-94
2022/04/29 17:01:52;;;;;;;8.75;3.25;;;;;;;;;;5077923;28;20044;-94
2022/04/29 17:04:18;;;;;;;4.68;2.90;;;;;;;;;;5077971;28;20040;-95
2022/04/29 17:06:46;;;;;;;7.00;3.20;;;;;;;;;;5077819;28;20024;-94
2022/04/29 17:09:12;;;;;;;6.68;3.30;;;;;;;;;;5077827;28;20116;-94
2022/04/29 17:11:38;;;;;;;7.50;3.55;;;;;;;;;;5077457;28;20052;-93
2022/04/29 17:14:04;;;;;;;14.48;6.30;;;;;;;;;;5060856;28;20024;-93
2022/04/29 17:16:31;;;;;;;14.20;6.30;;;;;;;;;;5077315;28;20327;-94
2022/04/29 17:18:57;;;;;;;12.50;6.13;;;;;;;;;;5060551;28;20094;-92
2022/04/29 17:21:23;;;;;;;9.23;5.60;;;;;;;;;;5077499;28;20024;-93
2022/04/29 17:23:49;;;;;;;11.05;5.93;;;;;;;;;;5076691;28;20463;-94
2022/04/29 17:26:15;;;;;;;12.63;8.50;;;;;;;;;;5077199;28;20029;-93
2022/04/29 17:28:42;;;;;;;17.23;10.55;;;;;;;;;;5060592;28;20031;-94
2022/04/29 17:31:08;;;;;;;17.30;10.82;;;;;;;;;;5060596;28;20041;-93
2022/04/29 17:33:35;;;;;;;20.13;11.80;;;;;;;;;;5077386;28;20424;-94
2022/04/29 17:36:04;;;;;;;20.88;11.10;;;;;;;;;;5069526;28;20123;-93
2022/04/29 17:38:30;;;;;;;19.50;12.30;;;;;;;;;;5099248;28;20032;-93
2022/04/29 17:43:41;;;;;;;19.67;10.55;;;;;;;;;;5099267;28;20035;-94
2022/04/29 17:46:07;;;;;;;19.20;10.25;;;;;;;;;;5098892;28;20398;-93
2022/04/29 17:48:33;;;;;;;19.60;10.80;;;;;;;;;;5098903;28;20313;-94
2022/04/29 17:50:59;;;;;;;23.35;10.45;;;;;;;;;;5097828;28;20073;-93
2022/04/29 17:53:26;;;;;;;25.75;11.57;;;;;;;;;;5098827;28;20070;-93
2022/04/29 17:55:52;;;;;;;25.27;12.43;;;;;;;;;;5098750;28;20391;-93
2022/04/29 17:58:20;;;;;;;32.78;17.17;;;;;;;;;;5098675;28;20410;-93
2022/04/29 18:00:46;;;;;;;37.42;17.45;;;;;;;;;;5098567;28;20024;-94
2022/04/29 18:03:12;;;;;;;29.88;18.48;;;;;;;;;;5098526;28;20294;-95
2022/04/29 18:05:39;;;;;;;33.55;18.10;;;;;;;;;;5097890;28;20024;-93
2022/04/29 18:08:05;;;;;;;31.05;18.83;;;;;;;;;;5098693;28;20048;-94
2022/04/29 18:10:32;;;;;;;28.45;17.38;;;;;;;;;;5097266;28;20444;-93
2022/04/29 18:12:58;;;;;;;33.97;18.10;;;;;;;;;;5097687;28;20043;-94
2022/04/29 18:15:25;;;;;;;29.02;16.80;;;;;;;;;;5098533;28;20371;-93
2022/04/29 18:17:51;;;;;;;30.55;17.17;;;;;;;;;;5098267;28;20024;-94
2022/04/29 18:20:19;;;;;;;26.58;17.05;;;;;;;;;;5097316;28;20118;-93
2022/04/29 18:22:45;;;;;;;24.60;15.63;;;;;;;;;;5098542;28;20024;-92
2022/04/29 18:25:11;;;;;;;25.15;13.70;;;;;;;;;;5098232;28;20023;-93
2022/04/29 18:27:37;;;;;;;25.75;14.27;;;;;;;;;;5097389;28;20027;-93
2022/04/29 18:30:04;;;;;;;26.55;14.20;;;;;;;;;;5098126;28;20020;-93
2022/04/29 18:32:31;;;;;;;27.48;13.40;;;;;;;;;;5098254;28;20107;-94
2022/04/29 18:34:59;;;;;;;20.70;13.27;;;;;;;;;;5098127;28;20299;-93
2022/04/29 18:37:26;;;;;;;18.65;12.65;;;;;;;;;;5098370;28;20023;-93
2022/04/29 18:39:52;;;;;;;20.88;12.15;;;;;;;;;;5098437;28;20032;-94
2022/04/29 18:42:19;;;;;;;17.27;11.73;;;;;;;;;;5097495;28;20032;-95
2022/04/29 18:44:45;;;;;;;18.08;11.27;;;;;;;;;;5097905;28;20038;-93
2022/04/29 18:47:11;;;;;;;20.58;12.13;;;;;;;;;;5097315;28;20035;-94
2022/04/29 18:49:37;;;;;;;20.63;11.95;;;;;;;;;;5096755;28;20020;-94
2022/04/29 18:52:03;;;;;;;17.50;11.68;;;;;;;;;;5097690;28;20028;-91
2022/04/29 18:54:29;;;;;;;16.50;12.23;;;;;;;;;;5097836;28;20052;-93
2022/04/29 18:56:56;;;;;;;20.55;11.85;;;;;;;;;;5097136;28;20028;-95
2022/04/29 18:59:22;;;;;;;22.33;12.80;;;;;;;;;;5098002;28;20024;-96
2022/04/29 19:01:48;;;;;;;18.15;13.43;;;;;;;;;;5097660;28;20111;-94
2022/04/29 19:04:18;;;;;;;21.77;13.32;;;;;;;;;;5097744;28;20020;-93
2022/04/29 19:06:44;;;;;;;21.40;12.57;;;;;;;;;;5097593;28;20024;-93
2022/04/29 19:09:10;;;;;;;19.55;13.38;;;;;;;;;;5097541;28;20021;-94
2022/04/29 19:11:36;;;;;;;18.13;13.20;;;;;;;;;;5097389;28;20135;-93
2022/04/29 19:14:03;;;;;;;25.23;13.77;;;;;;;;;;5096965;28;20037;-95
2022/04/29 19:16:29;;;;;;;18.77;13.52;;;;;;;;;;5096649;28;20032;-93
2022/04/29 19:18:56;;;;;;;21.45;14.30;;;;;;;;;;5097407;28;20024;-94
2022/04/29 19:21:22;;;;;;;19.98;14.10;;;;;;;;;;5097743;28;20031;-94
2022/04/29 19:23:48;;;;;;;22.05;14.50;;;;;;;;;;5096672;28;20028;-94
2022/04/29 19:26:16;;;;;;;28.70;14.30;;;;;;;;;;5097650;28;20027;-95
2022/04/29 19:28:43;;;;;;;22.25;15.23;;;;;;;;;;5097665;28;20425;-93
2022/04/29 19:31:14;;;;;;;24.85;15.20;;;;;;;;;;5096753;28;20025;-93
2022/04/29 19:33:42;;;;;;;28.95;13.57;;;;;;;;;;5096887;28;20385;-94
2022/04/29 19:36:10;;;;;;;23.42;13.70;;;;;;;;;;5097673;28;20052;-92
2022/04/29 19:38:38;;;;;;;22.80;13.38;;;;;;;;;;5097621;28;20036;-94
2022/04/29 19:41:04;;;;;;;25.20;13.90;;;;;;;;;;5097360;28;20379;-94
2022/04/29 19:43:30;;;;;;;25.60;14.85;;;;;;;;;;5097504;28;20306;-95
2022/04/29 19:45:56;;;;;;;27.63;14.13;;;;;;;;;;5097336;28;20028;-95
2022/04/29 19:48:23;;;;;;;21.70;13.35;;;;;;;;;;5099345;28;20027;-94
2022/04/29 19:50:49;;;;;;;23.55;14.02;;;;;;;;;;5101344;28;20024;-94
2022/04/29 19:53:15;;;;;;;25.17;14.05;;;;;;;;;;5100901;28;20410;-93
2022/04/29 19:55:41;;;;;;;31.25;19.10;;;;;;;;;;5101067;28;20082;-94
2022/04/29 20:00:51;;;;;;;37.22;22.58;;;;;;;;;;5100822;28;20170;-94
2022/04/29 20:06:02;;;;;;;42.67;25.48;;;;;;;;;;5101043;28;20146;-94
2022/04/29 20:08:28;;;;;;;25.40;17.60;;;;;;;;;;5100707;28;20107;-94
2022/04/29 20:10:54;;;;;;;24.73;15.60;;;;;;;;;;5100739;28;20408;-95
2022/04/29 20:13:21;;;;;;;20.55;11.88;;;;;;;;;;5099754;28;20106;-95
2022/04/29 20:15:47;;;;;;;16.92;10.43;;;;;;;;;;5100654;28;20028;-94
2022/04/29 20:18:14;;;;;;;16.63;11.55;;;;;;;;;;5100004;28;20036;-94
2022/04/29 20:20:40;;;;;;;15.55;9.23;;;;;;;;;;5100196;28;20085;-93
2022/04/29 20:23:06;;;;;;;15.82;10.65;;;;;;;;;;5100079;28;20115;-94
2022/04/29 20:25:35;;;;;;;15.80;10.20;;;;;;;;;;5100967;28;20369;-94
2022/04/29 20:28:04;;;;;;;16.60;10.07;;;;;;;;;;5100274;28;20024;-94
2022/04/29 20:30:30;;;;;;;16.52;10.70;;;;;;;;;;5100325;28;20024;-93
2022/04/29 20:32:56;;;;;;;20.40;13.02;;;;;;;;;;5099328;28;20020;-93